createdAt,value
2018-12-18T00:03:51.213Z,101788.17
2018-12-18T00:07:57.215Z,101785.06
2018-12-18T00:12:01.303Z,101779.30
2018-12-18T00:16:05.320Z,101784.73
2018-12-18T00:20:09.484Z,101779.67
2018-12-18T00:24:13.487Z,101778.52
2018-12-18T00:28:17.502Z,101782.97
2018-12-18T00:32:21.505Z,101787.04
2018-12-18T00:36:25.558Z,101778.84
2018-12-18T00:40:29.559Z,101777.27
2018-12-18T00:44:33.571Z,101773.24
2018-12-18T00:48:37.794Z,101770.83
2018-12-18T00:52:41.820Z,101769.23
2018-12-18T00:56:45.926Z,101762.83
2018-12-18T01:00:49.863Z,101750.01
2018-12-18T01:04:54.040Z,101748.55
2018-12-18T01:08:58.040Z,101744.20
2018-12-18T01:13:01.982Z,101746.94
2018-12-18T01:17:05.922Z,101746.80
2018-12-18T01:21:09.914Z,101753.93
2018-12-18T01:25:13.905Z,101760.53
2018-12-18T01:29:17.933Z,101758.17
2018-12-18T01:33:21.927Z,101766.93
2018-12-18T01:37:25.952Z,101767.70
2018-12-18T01:41:30.002Z,101761.27
2018-12-18T01:45:34.027Z,101765.65
2018-12-18T01:49:38.039Z,101771.19
2018-12-18T01:53:41.958Z,101779.63
2018-12-18T01:57:45.964Z,101785.48
2018-12-18T02:01:49.996Z,101790.31
2018-12-18T02:05:54.099Z,101774.69
2018-12-18T02:09:58.147Z,101771.89
2018-12-18T02:14:02.283Z,101777.84
2018-12-18T02:18:06.319Z,101771.20
2018-12-18T02:22:10.400Z,101755.06
2018-12-18T02:26:14.310Z,101755.67
2018-12-18T02:30:18.393Z,101758.44
2018-12-18T02:34:22.392Z,101761.61
2018-12-18T02:38:26.397Z,101761.19
2018-12-18T02:42:30.443Z,101770.35
2018-12-18T02:46:34.391Z,101760.27
2018-12-18T02:50:38.395Z,101747.73
2018-12-18T02:54:42.392Z,101742.08
2018-12-18T02:58:46.407Z,101735.41
2018-12-18T03:02:50.552Z,101730.61
2018-12-18T03:06:54.576Z,101732.47
2018-12-18T03:10:58.588Z,101725.56
2018-12-18T03:15:02.585Z,101721.42
2018-12-18T03:19:06.667Z,101721.77
2018-12-18T03:23:10.619Z,101710.48
2018-12-18T03:27:14.603Z,101718.34
2018-12-18T03:31:18.717Z,101719.18
2018-12-18T03:35:22.851Z,101715.84
2018-12-18T03:39:26.872Z,101715.22
2018-12-18T03:43:30.772Z,101700.78
2018-12-18T03:47:34.857Z,101698.34
2018-12-18T03:51:38.815Z,101686.69
2018-12-18T03:55:42.861Z,101689.00
2018-12-18T03:59:46.824Z,101684.58
2018-12-18T04:03:50.840Z,101681.13
2018-12-18T04:07:54.897Z,101680.35
2018-12-18T04:12:04.403Z,101680.03
2018-12-18T04:16:08.427Z,101670.22
2018-12-18T04:20:12.522Z,101681.50
2018-12-18T04:24:16.520Z,101684.55
2018-12-18T04:28:20.516Z,101672.80
2018-12-18T04:32:24.492Z,101671.91
2018-12-18T04:36:30.427Z,101670.25
2018-12-18T04:40:34.450Z,101671.53
2018-12-18T04:44:39.413Z,101668.98
2018-12-18T04:48:43.415Z,101669.05
2018-12-18T04:52:47.464Z,101662.98
2018-12-18T04:56:51.475Z,101669.48
2018-12-18T05:00:55.503Z,101668.61
2018-12-18T05:04:59.563Z,101671.23
2018-12-18T05:09:05.537Z,101676.06
2018-12-18T05:13:10.530Z,101677.28
2018-12-18T05:17:14.568Z,101681.14
2018-12-18T05:21:18.515Z,101682.02
2018-12-18T05:25:22.561Z,101681.54
2018-12-18T05:29:26.557Z,101684.09
2018-12-18T05:33:30.551Z,101684.53
2018-12-18T05:37:34.599Z,101682.15
2018-12-18T05:41:38.591Z,101684.80
2018-12-18T05:45:44.567Z,101676.73
2018-12-18T05:49:48.563Z,101678.98
2018-12-18T05:53:52.639Z,101675.73
2018-12-18T05:57:56.710Z,101672.69
2018-12-18T06:02:00.763Z,101676.66
2018-12-18T06:06:05.000Z,101678.05
2018-12-18T06:10:09.107Z,101673.35
2018-12-18T06:14:13.118Z,101680.83
2018-12-18T06:18:17.161Z,101685.11
2018-12-18T06:22:21.188Z,101686.89
2018-12-18T06:26:25.213Z,101686.52
2018-12-18T06:30:29.235Z,101679.14
2018-12-18T06:34:34.282Z,101674.87
2018-12-18T06:38:38.235Z,101682.70
2018-12-18T06:42:42.191Z,101674.95
2018-12-18T06:46:46.210Z,101667.98
2018-12-18T06:50:50.248Z,101661.00
2018-12-18T06:54:54.278Z,101653.98
2018-12-18T06:58:58.267Z,101641.80
2018-12-18T07:03:02.328Z,101630.06
2018-12-18T07:07:06.427Z,101635.25
2018-12-18T07:11:10.452Z,101629.20
2018-12-18T07:15:14.474Z,101626.53
2018-12-18T07:19:18.490Z,101617.83
2018-12-18T07:23:22.501Z,101629.13
2018-12-18T07:27:26.498Z,101618.19
2018-12-18T07:31:30.511Z,101607.80
2018-12-18T07:35:34.501Z,101612.99
2018-12-18T07:39:38.561Z,101617.81
2018-12-18T07:43:42.511Z,101608.72
2018-12-18T07:47:46.502Z,101613.42
2018-12-18T07:51:50.459Z,101619.03
2018-12-18T07:56:00.153Z,101618.96
2018-12-18T08:00:00.524Z,101613.00
2018-12-18T08:04:04.585Z,101612.39
2018-12-18T08:08:08.659Z,101610.94
2018-12-18T08:12:12.589Z,101599.31
2018-12-18T08:16:16.594Z,101606.80
2018-12-18T08:20:20.767Z,101599.15
2018-12-18T08:24:24.790Z,101597.71
2018-12-18T08:28:28.943Z,101582.44
2018-12-18T08:32:33.010Z,101571.27
2018-12-18T08:36:36.999Z,101572.02
2018-12-18T08:40:41.071Z,101580.09
2018-12-18T08:44:44.990Z,101573.90
2018-12-18T08:48:49.062Z,101590.30
2018-12-18T08:52:53.066Z,101587.66
2018-12-18T08:56:57.135Z,101574.00
2018-12-18T09:01:01.186Z,101587.31
2018-12-18T09:05:07.010Z,101579.00
2018-12-18T09:09:11.089Z,101576.72
2018-12-18T09:13:15.110Z,101563.73
2018-12-18T09:17:24.456Z,101573.00
2018-12-18T09:21:28.436Z,101562.63
2018-12-18T09:25:32.674Z,101553.20
2018-12-18T09:29:36.624Z,101542.92
2018-12-18T09:33:40.583Z,101540.12
2018-12-18T09:37:44.570Z,101542.25
2018-12-18T09:41:48.703Z,101546.33
2018-12-18T09:45:52.667Z,101550.62
2018-12-18T09:49:56.690Z,101541.91
2018-12-18T09:54:00.715Z,101535.28
2018-12-18T09:58:08.914Z,101535.61
2018-12-18T10:02:13.049Z,101515.82
2018-12-18T10:06:17.054Z,101513.62
2018-12-18T10:10:21.090Z,101504.50
2018-12-18T10:14:25.232Z,101489.89
2018-12-18T10:18:29.205Z,101485.64
2018-12-18T10:22:33.967Z,101477.58
2018-12-18T10:26:38.075Z,101467.72
2018-12-18T10:30:42.119Z,101463.06
2018-12-18T10:34:46.151Z,101464.19
2018-12-18T10:38:50.159Z,101460.98
2018-12-18T10:42:54.180Z,101450.59
2018-12-18T10:46:58.160Z,101444.28
2018-12-18T10:51:02.356Z,101429.78
2018-12-18T10:55:07.124Z,101429.37
2018-12-18T10:59:11.175Z,101420.55
2018-12-18T11:03:15.266Z,101403.34
2018-12-18T11:07:20.210Z,101405.47
2018-12-18T11:11:24.216Z,101383.14
2018-12-18T11:15:28.490Z,101376.16
2018-12-18T11:19:32.583Z,101372.95
2018-12-18T11:23:36.531Z,101371.12
2018-12-18T11:27:40.667Z,101371.56
2018-12-18T11:31:45.706Z,101376.39
2018-12-18T11:35:49.735Z,101376.56
2018-12-18T11:39:53.787Z,101367.58
2018-12-18T11:43:57.763Z,101373.67
2018-12-18T11:48:01.793Z,101371.52
2018-12-18T11:52:05.823Z,101367.08
2018-12-18T11:56:10.036Z,101356.41
2018-12-18T12:00:17.159Z,101338.16
2018-12-18T12:04:21.173Z,101341.63
2018-12-18T12:08:25.171Z,101339.36
2018-12-18T12:12:29.207Z,101324.69
2018-12-18T12:16:33.235Z,101319.67
2018-12-18T12:20:37.350Z,101316.27
2018-12-18T12:24:42.352Z,101314.56
2018-12-18T12:28:47.361Z,101307.84
2018-12-18T12:32:51.343Z,101299.20
2018-12-18T12:36:55.308Z,101297.27
2018-12-18T12:41:00.283Z,101281.63
2018-12-18T12:45:04.460Z,101276.11
2018-12-18T12:49:10.338Z,101265.23
2018-12-18T12:53:14.332Z,101266.81
2018-12-18T12:57:18.274Z,101258.31
2018-12-18T13:01:22.332Z,101251.99
2018-12-18T13:05:26.340Z,101247.13
2018-12-18T13:09:30.411Z,101238.47
2018-12-18T13:13:34.339Z,101228.34
2018-12-18T13:17:38.422Z,101226.34
2018-12-18T13:21:42.422Z,101202.70
2018-12-18T13:25:46.392Z,101206.41
2018-12-18T13:29:50.629Z,101199.42
2018-12-18T13:33:54.631Z,101208.94
2018-12-18T13:37:58.622Z,101195.78
2018-12-18T13:42:02.682Z,101189.70
2018-12-18T13:46:06.749Z,101193.44
2018-12-18T13:50:10.782Z,101195.67
2018-12-18T13:54:14.813Z,101193.78
2018-12-18T13:58:18.918Z,101176.06
2018-12-18T14:02:23.886Z,101164.70
2018-12-18T14:06:27.883Z,101161.31
2018-12-18T14:10:31.992Z,101150.75
2018-12-18T14:14:36.158Z,101145.50
2018-12-18T14:18:40.194Z,101149.84
2018-12-18T14:22:44.302Z,101141.05
2018-12-18T14:26:48.348Z,101145.81
2018-12-18T14:30:53.658Z,101140.02
2018-12-18T14:34:57.986Z,101140.28
2018-12-18T14:39:02.024Z,101136.43
2018-12-18T14:43:06.280Z,101128.79
2018-12-18T14:47:10.450Z,101129.98
2018-12-18T14:51:15.563Z,101111.03
2018-12-18T14:55:19.674Z,101098.55
2018-12-18T14:59:24.023Z,101082.22
2018-12-18T15:03:28.140Z,101077.67
2018-12-18T15:07:33.410Z,101074.36
2018-12-18T15:11:37.402Z,101064.65
2018-12-18T15:15:41.386Z,101076.52
2018-12-18T15:19:45.680Z,101083.28
2018-12-18T15:23:49.914Z,101094.05
2018-12-18T15:27:53.978Z,101089.92
2018-12-18T15:31:58.007Z,101089.94
2018-12-18T15:36:02.187Z,101081.63
2018-12-18T15:40:06.654Z,101086.51
2018-12-18T15:44:10.703Z,101081.47
2018-12-18T15:48:14.718Z,101089.02
2018-12-18T15:52:18.843Z,101081.83
2018-12-18T15:56:22.955Z,101076.24
2018-12-18T16:00:26.978Z,101069.79
2018-12-18T16:04:31.073Z,101071.19
2018-12-18T16:08:35.192Z,101066.52
2018-12-18T16:12:39.343Z,101068.42
2018-12-18T16:16:43.447Z,101071.94
2018-12-18T16:20:47.469Z,101066.30
2018-12-18T16:24:51.459Z,101061.27
2018-12-18T16:28:55.503Z,101039.98
2018-12-18T16:32:59.603Z,101024.86
2018-12-18T16:37:03.768Z,101015.88
2018-12-18T16:41:07.694Z,101018.22
2018-12-18T16:45:11.891Z,101018.67
2018-12-18T16:49:16.015Z,101010.84
2018-12-18T16:53:20.120Z,101006.87
2018-12-18T16:57:24.138Z,100998.58
2018-12-18T17:01:28.121Z,101004.25
2018-12-18T17:05:32.171Z,101000.13
2018-12-18T17:09:36.292Z,100995.72
2018-12-18T17:13:40.295Z,100987.47
2018-12-18T17:17:44.325Z,100977.41
2018-12-18T17:21:48.371Z,100950.31
2018-12-18T17:25:53.259Z,100946.25
2018-12-18T17:29:57.343Z,100935.80
2018-12-18T17:34:01.521Z,100926.20
2018-12-18T17:38:05.773Z,100919.70
2018-12-18T17:42:09.825Z,100907.90
2018-12-18T17:46:13.866Z,100900.27
2018-12-18T17:50:18.895Z,100891.00
2018-12-18T17:54:23.034Z,100890.05
2018-12-18T17:58:27.116Z,100882.77
2018-12-18T18:02:31.148Z,100868.79
2018-12-18T18:06:35.262Z,100859.81
2018-12-18T18:10:39.286Z,100849.81
2018-12-18T18:14:43.322Z,100846.41
2018-12-18T18:18:47.364Z,100824.69
2018-12-18T18:22:51.475Z,100817.89
2018-12-18T18:26:56.339Z,100817.49
2018-12-18T18:31:00.410Z,100807.44
2018-12-18T18:35:04.863Z,100808.80
2018-12-18T18:39:08.966Z,100814.69
2018-12-18T18:43:12.986Z,100816.09
2018-12-18T18:47:17.066Z,100815.59
2018-12-18T18:51:21.102Z,100814.03
2018-12-18T18:55:25.083Z,100811.47
2018-12-18T18:59:29.153Z,100816.80
2018-12-18T19:03:33.102Z,100814.98
2018-12-18T19:07:37.097Z,100807.59
2018-12-18T19:11:41.198Z,100801.06
2018-12-18T19:15:45.207Z,100787.14
2018-12-18T19:19:49.219Z,100782.66
2018-12-18T19:23:53.240Z,100783.17
2018-12-18T19:27:57.381Z,100779.09
2018-12-18T19:32:01.341Z,100759.41
2018-12-18T19:36:05.566Z,100757.73
2018-12-18T19:40:09.775Z,100758.56
2018-12-18T19:44:13.752Z,100740.33
2018-12-18T19:48:18.753Z,100731.70
2018-12-18T19:52:22.711Z,100727.44
2018-12-18T19:56:26.839Z,100728.56
2018-12-18T20:00:30.859Z,100716.53
2018-12-18T20:04:34.925Z,100719.14
2018-12-18T20:08:39.976Z,100724.42
2018-12-18T20:12:43.925Z,100723.52
2018-12-18T20:16:48.081Z,100735.49
2018-12-18T20:20:52.243Z,100735.49
2018-12-18T20:24:56.263Z,100727.49
2018-12-18T20:29:00.288Z,100711.47
2018-12-18T20:33:04.501Z,100684.53
2018-12-18T20:37:08.542Z,100679.76
2018-12-18T20:41:12.524Z,100679.76
2018-12-18T20:45:16.631Z,100668.47
2018-12-18T20:49:20.723Z,100650.00
2018-12-18T20:53:24.693Z,100647.79
2018-12-18T20:57:28.794Z,100634.44
2018-12-18T21:01:32.842Z,100621.48
2018-12-18T21:05:36.999Z,100615.81
2018-12-18T21:09:41.083Z,100610.58
2018-12-18T21:17:52.079Z,100602.60
2018-12-18T21:21:56.291Z,100583.25
2018-12-18T21:26:00.563Z,100600.84
2018-12-18T21:30:05.686Z,100599.98
2018-12-18T21:34:10.193Z,100600.27
2018-12-18T21:38:14.527Z,100597.77
2018-12-18T21:42:18.795Z,100599.94
2018-12-18T21:46:22.960Z,100588.05
2018-12-18T21:50:27.130Z,100585.05
2018-12-18T21:55:34.662Z,100572.55
2018-12-18T21:59:38.812Z,100580.67
2018-12-18T22:03:42.941Z,100571.64
2018-12-18T22:07:47.131Z,100567.97
2018-12-18T22:11:51.367Z,100531.64
2018-12-18T22:15:55.486Z,100518.91
2018-12-18T22:19:59.686Z,100508.10
2018-12-18T22:24:03.905Z,100502.54
2018-12-18T22:28:08.130Z,100494.91
2018-12-18T22:32:12.296Z,100479.89
2018-12-18T22:36:16.324Z,100472.44
2018-12-18T22:40:20.330Z,100516.09
2018-12-18T22:44:24.403Z,100500.08
2018-12-18T22:48:28.367Z,100509.23
2018-12-18T22:52:32.423Z,100501.33
2018-12-18T22:56:36.407Z,100501.66
2018-12-18T23:00:45.610Z,100472.62
2018-12-18T23:04:50.989Z,100460.84
2018-12-18T23:08:55.027Z,100456.59
2018-12-18T23:12:59.062Z,100476.27
2018-12-18T23:17:03.014Z,100460.00
2018-12-18T23:21:06.996Z,100454.06
2018-12-18T23:25:10.987Z,100467.66
2018-12-18T23:29:14.956Z,100480.52
2018-12-18T23:33:18.999Z,100480.92
2018-12-18T23:37:23.007Z,100488.13
2018-12-18T23:41:27.129Z,100486.02
2018-12-18T23:45:31.235Z,100472.49
2018-12-18T23:49:35.313Z,100458.36
2018-12-18T23:53:40.010Z,100434.53
2018-12-18T23:57:44.006Z,100447.20
